Terminal Aerodrome Forecast
Issued by NWS

Home | Current Version | Previous Version | Text Only | Print | Product List | Glossary On
Versions: 1 2 3 4 5 6 7 8 9 10 11 12 13 14 15 16 17 18 19 20 21 22
000
FTUS42 KFFC 242320
TAFRYY
TAF
KRYY 242320Z 2500/2524 28008KT P6SM BKN040
     FM250200 27006KT P6SM SCT035 BKN090
     FM250800 27005KT P6SM VCSH BKN015 BKN050
     FM251400 29013G23KT P6SM BKN030
     FM251800 29014G24KT P6SM SCT040
      AMD NOT SKED 2504/2512=

USA.gov is the U.S. government's official web portal to all federal, state and local government web resources and services.